sensor_id;sensor_type;location;lat;lon;timestamp;P1;durP1;ratioP1;P2;durP2;ratioP2
43154;SDS011;34212;51.018;13.586;2023-03-23T00:03:19;4.38;;;1.10;;
43154;SDS011;34212;51.018;13.586;2023-03-23T00:08:21;1.60;;;1.20;;
43154;SDS011;34212;51.018;13.586;2023-03-23T00:13:24;2.33;;;1.15;;
43154;SDS011;34212;51.018;13.586;2023-03-23T00:18:25;2.40;;;1.30;;
43154;SDS011;34212;51.018;13.586;2023-03-23T00:23:27;1.60;;;1.20;;
43154;SDS011;34212;51.018;13.586;2023-03-23T00:28:28;3.95;;;1.15;;
43154;SDS011;34212;51.018;13.586;2023-03-23T00:33:30;3.17;;;1.02;;
43154;SDS011;34212;51.018;13.586;2023-03-23T00:38:38;2.05;;;1.00;;
43154;SDS011;34212;51.018;13.586;2023-03-23T00:43:41;1.95;;;1.40;;
43154;SDS011;34212;51.018;13.586;2023-03-23T00:48:42;2.85;;;1.17;;
43154;SDS011;34212;51.018;13.586;2023-03-23T00:53:44;1.10;;;0.87;;
43154;SDS011;34212;51.018;13.586;2023-03-23T00:58:46;1.00;;;0.90;;
43154;SDS011;34212;51.018;13.586;2023-03-23T01:03:46;1.40;;;1.10;;
43154;SDS011;34212;51.018;13.586;2023-03-23T01:08:47;1.13;;;0.80;;
43154;SDS011;34212;51.018;13.586;2023-03-23T01:13:47;1.38;;;1.00;;
43154;SDS011;34212;51.018;13.586;2023-03-23T01:18:47;3.25;;;1.05;;
43154;SDS011;34212;51.018;13.586;2023-03-23T01:23:48;2.15;;;0.90;;
43154;SDS011;34212;51.018;13.586;2023-03-23T01:28:49;1.55;;;0.80;;
43154;SDS011;34212;51.018;13.586;2023-03-23T01:33:50;3.47;;;1.00;;
43154;SDS011;34212;51.018;13.586;2023-03-23T01:38:52;1.30;;;1.00;;
43154;SDS011;34212;51.018;13.586;2023-03-23T01:43:58;1.23;;;0.80;;
43154;SDS011;34212;51.018;13.586;2023-03-23T01:49:40;1.52;;;1.00;;
43154;SDS011;34212;51.018;13.586;2023-03-23T01:54:47;1.55;;;1.10;;
43154;SDS011;34212;51.018;13.586;2023-03-23T02:04:59;1.10;;;1.00;;
43154;SDS011;34212;51.018;13.586;2023-03-23T02:10:06;1.10;;;1.00;;
43154;SDS011;34212;51.018;13.586;2023-03-23T02:20:33;1.98;;;1.13;;
43154;SDS011;34212;51.018;13.586;2023-03-23T02:41:27;1.73;;;0.90;;
43154;SDS011;34212;51.018;13.586;2023-03-23T02:46:32;1.70;;;1.00;;
43154;SDS011;34212;51.018;13.586;2023-03-23T02:51:35;2.90;;;1.00;;
43154;SDS011;34212;51.018;13.586;2023-03-23T02:56:36;1.60;;;1.00;;
43154;SDS011;34212;51.018;13.586;2023-03-23T03:01:48;1.25;;;1.10;;
43154;SDS011;34212;51.018;13.586;2023-03-23T03:12:12;2.08;;;1.00;;
43154;SDS011;34212;51.018;13.586;2023-03-23T03:17:25;2.28;;;1.17;;
43154;SDS011;34212;51.018;13.586;2023-03-23T03:22:28;2.10;;;0.93;;
43154;SDS011;34212;51.018;13.586;2023-03-23T03:27:30;1.77;;;1.00;;
43154;SDS011;34212;51.018;13.586;2023-03-23T03:32:47;3.15;;;1.27;;
43154;SDS011;34212;51.018;13.586;2023-03-23T03:37:54;1.65;;;1.08;;
43154;SDS011;34212;51.018;13.586;2023-03-23T03:42:55;1.25;;;1.00;;
43154;SDS011;34212;51.018;13.586;2023-03-23T03:47:56;2.15;;;1.40;;
43154;SDS011;34212;51.018;13.586;2023-03-23T03:52:56;3.95;;;1.27;;
43154;SDS011;34212;51.018;13.586;2023-03-23T03:57:58;1.30;;;1.02;;
43154;SDS011;34212;51.018;13.586;2023-03-23T04:03:27;1.75;;;1.10;;
43154;SDS011;34212;51.018;13.586;2023-03-23T04:08:48;3.08;;;1.27;;
43154;SDS011;34212;51.018;13.586;2023-03-23T04:13:48;3.75;;;1.20;;
43154;SDS011;34212;51.018;13.586;2023-03-23T04:19:00;1.33;;;1.10;;
43154;SDS011;34212;51.018;13.586;2023-03-23T04:24:01;1.63;;;0.88;;
43154;SDS011;34212;51.018;13.586;2023-03-23T04:29:03;1.20;;;1.00;;
43154;SDS011;34212;51.018;13.586;2023-03-23T04:34:08;1.95;;;1.10;;
43154;SDS011;34212;51.018;13.586;2023-03-23T04:39:15;1.70;;;1.27;;
43154;SDS011;34212;51.018;13.586;2023-03-23T04:44:17;3.28;;;1.17;;
43154;SDS011;34212;51.018;13.586;2023-03-23T04:49:29;3.10;;;1.33;;
43154;SDS011;34212;51.018;13.586;2023-03-23T04:54:43;2.08;;;1.23;;
43154;SDS011;34212;51.018;13.586;2023-03-23T04:59:45;1.83;;;1.20;;
43154;SDS011;34212;51.018;13.586;2023-03-23T05:04:57;2.50;;;1.42;;
43154;SDS011;34212;51.018;13.586;2023-03-23T05:10:00;2.28;;;1.50;;
43154;SDS011;34212;51.018;13.586;2023-03-23T05:15:04;1.60;;;1.27;;
43154;SDS011;34212;51.018;13.586;2023-03-23T05:20:08;1.92;;;1.60;;
43154;SDS011;34212;51.018;13.586;2023-03-23T05:25:18;3.65;;;1.30;;
43154;SDS011;34212;51.018;13.586;2023-03-23T05:30:23;5.10;;;1.45;;
43154;SDS011;34212;51.018;13.586;2023-03-23T05:35:23;2.40;;;1.60;;
43154;SDS011;34212;51.018;13.586;2023-03-23T05:45:37;1.30;;;1.10;;
43154;SDS011;34212;51.018;13.586;2023-03-23T05:50:37;2.08;;;1.10;;
43154;SDS011;34212;51.018;13.586;2023-03-23T05:55:39;1.15;;;1.00;;
43154;SDS011;34212;51.018;13.586;2023-03-23T06:00:52;2.65;;;1.40;;
43154;SDS011;34212;51.018;13.586;2023-03-23T06:05:59;1.42;;;1.08;;
43154;SDS011;34212;51.018;13.586;2023-03-23T06:11:08;1.60;;;1.10;;
43154;SDS011;34212;51.018;13.586;2023-03-23T06:16:16;2.83;;;1.10;;
43154;SDS011;34212;51.018;13.586;2023-03-23T06:21:26;1.33;;;1.13;;
43154;SDS011;34212;51.018;13.586;2023-03-23T06:26:30;2.88;;;1.42;;
43154;SDS011;34212;51.018;13.586;2023-03-23T06:31:49;3.08;;;1.38;;
43154;SDS011;34212;51.018;13.586;2023-03-23T06:36:55;1.35;;;1.10;;
43154;SDS011;34212;51.018;13.586;2023-03-23T06:42:14;1.88;;;1.25;;
43154;SDS011;34212;51.018;13.586;2023-03-23T06:47:21;2.78;;;1.23;;
43154;SDS011;34212;51.018;13.586;2023-03-23T06:52:24;1.42;;;1.10;;
43154;SDS011;34212;51.018;13.586;2023-03-23T06:57:27;4.15;;;1.65;;
43154;SDS011;34212;51.018;13.586;2023-03-23T07:02:29;1.25;;;1.15;;
43154;SDS011;34212;51.018;13.586;2023-03-23T07:07:30;2.55;;;1.38;;
43154;SDS011;34212;51.018;13.586;2023-03-23T07:12:48;3.78;;;1.70;;
43154;SDS011;34212;51.018;13.586;2023-03-23T07:17:50;2.28;;;1.42;;
43154;SDS011;34212;51.018;13.586;2023-03-23T07:23:01;1.90;;;1.40;;
43154;SDS011;34212;51.018;13.586;2023-03-23T07:28:22;2.35;;;1.60;;
43154;SDS011;34212;51.018;13.586;2023-03-23T07:33:25;2.45;;;1.40;;
43154;SDS011;34212;51.018;13.586;2023-03-23T07:38:29;4.95;;;1.50;;
43154;SDS011;34212;51.018;13.586;2023-03-23T07:43:32;2.85;;;1.42;;
43154;SDS011;34212;51.018;13.586;2023-03-23T07:48:44;1.48;;;1.38;;
43154;SDS011;34212;51.018;13.586;2023-03-23T07:53:45;1.77;;;1.33;;
43154;SDS011;34212;51.018;13.586;2023-03-23T07:59:10;1.80;;;1.42;;
43154;SDS011;34212;51.018;13.586;2023-03-23T08:04:13;2.42;;;1.55;;
43154;SDS011;34212;51.018;13.586;2023-03-23T08:09:33;2.65;;;1.60;;
43154;SDS011;34212;51.018;13.586;2023-03-23T08:14:52;3.00;;;1.67;;
43154;SDS011;34212;51.018;13.586;2023-03-23T08:20:23;2.13;;;1.63;;
43154;SDS011;34212;51.018;13.586;2023-03-23T08:25:34;4.03;;;1.80;;
43154;SDS011;34212;51.018;13.586;2023-03-23T08:30:58;3.40;;;1.80;;
43154;SDS011;34212;51.018;13.586;2023-03-23T08:36:10;2.83;;;1.50;;
43154;SDS011;34212;51.018;13.586;2023-03-23T08:41:29;2.72;;;1.40;;
43154;SDS011;34212;51.018;13.586;2023-03-23T08:46:39;1.95;;;1.50;;
43154;SDS011;34212;51.018;13.586;2023-03-23T08:51:54;2.08;;;1.48;;
43154;SDS011;34212;51.018;13.586;2023-03-23T08:57:06;2.67;;;1.70;;
43154;SDS011;34212;51.018;13.586;2023-03-23T09:02:24;2.65;;;1.70;;
43154;SDS011;34212;51.018;13.586;2023-03-23T09:07:38;3.28;;;1.60;;
43154;SDS011;34212;51.018;13.586;2023-03-23T09:12:41;1.85;;;1.60;;
43154;SDS011;34212;51.018;13.586;2023-03-23T09:17:43;2.72;;;1.70;;
43154;SDS011;34212;51.018;13.586;2023-03-23T09:22:47;2.47;;;1.92;;
43154;SDS011;34212;51.018;13.586;2023-03-23T09:27:57;9.95;;;2.00;;
43154;SDS011;34212;51.018;13.586;2023-03-23T09:32:59;4.43;;;1.85;;
43154;SDS011;34212;51.018;13.586;2023-03-23T09:38:04;4.80;;;1.92;;
43154;SDS011;34212;51.018;13.586;2023-03-23T09:53:28;2.78;;;1.73;;
43154;SDS011;34212;51.018;13.586;2023-03-23T09:58:37;3.55;;;1.70;;
43154;SDS011;34212;51.018;13.586;2023-03-23T10:03:42;2.75;;;1.60;;
43154;SDS011;34212;51.018;13.586;2023-03-23T10:08:49;3.08;;;1.75;;
43154;SDS011;34212;51.018;13.586;2023-03-23T10:19:33;2.00;;;1.58;;
43154;SDS011;34212;51.018;13.586;2023-03-23T10:24:51;2.17;;;1.55;;
43154;SDS011;34212;51.018;13.586;2023-03-23T10:30:11;2.45;;;1.45;;
43154;SDS011;34212;51.018;13.586;2023-03-23T10:35:19;2.60;;;1.40;;
43154;SDS011;34212;51.018;13.586;2023-03-23T10:40:31;2.40;;;1.40;;
43154;SDS011;34212;51.018;13.586;2023-03-23T10:45:35;2.80;;;1.38;;
43154;SDS011;34212;51.018;13.586;2023-03-23T10:50:36;3.13;;;1.52;;
43154;SDS011;34212;51.018;13.586;2023-03-23T10:55:39;1.55;;;1.25;;
43154;SDS011;34212;51.018;13.586;2023-03-23T11:00:45;1.50;;;1.27;;
43154;SDS011;34212;51.018;13.586;2023-03-23T11:05:52;1.88;;;1.50;;
43154;SDS011;34212;51.018;13.586;2023-03-23T11:10:56;2.13;;;1.40;;
43154;SDS011;34212;51.018;13.586;2023-03-23T11:15:59;1.83;;;1.30;;
43154;SDS011;34212;51.018;13.586;2023-03-23T11:21:01;2.50;;;1.40;;
43154;SDS011;34212;51.018;13.586;2023-03-23T11:36:16;1.67;;;1.17;;
43154;SDS011;34212;51.018;13.586;2023-03-23T11:41:18;1.58;;;1.20;;
43154;SDS011;34212;51.018;13.586;2023-03-23T11:46:29;2.00;;;1.48;;
43154;SDS011;34212;51.018;13.586;2023-03-23T11:51:39;3.53;;;1.60;;
43154;SDS011;34212;51.018;13.586;2023-03-23T11:56:46;1.88;;;1.20;;
43154;SDS011;34212;51.018;13.586;2023-03-23T12:01:48;4.65;;;1.60;;
43154;SDS011;34212;51.018;13.586;2023-03-23T12:12:31;3.35;;;1.58;;
43154;SDS011;34212;51.018;13.586;2023-03-23T12:28:43;2.03;;;1.42;;
43154;SDS011;34212;51.018;13.586;2023-03-23T12:44:43;2.17;;;1.48;;
43154;SDS011;34212;51.018;13.586;2023-03-23T13:05:56;2.78;;;1.50;;
43154;SDS011;34212;51.018;13.586;2023-03-23T13:11:05;2.55;;;1.55;;
43154;SDS011;34212;51.018;13.586;2023-03-23T13:21:43;1.65;;;1.52;;
43154;SDS011;34212;51.018;13.586;2023-03-23T13:26:58;2.10;;;1.42;;
43154;SDS011;34212;51.018;13.586;2023-03-23T13:32:05;2.88;;;1.65;;
43154;SDS011;34212;51.018;13.586;2023-03-23T13:37:18;3.67;;;1.70;;
43154;SDS011;34212;51.018;13.586;2023-03-23T13:47:27;2.70;;;1.50;;
43154;SDS011;34212;51.018;13.586;2023-03-23T14:08:11;3.05;;;1.77;;
43154;SDS011;34212;51.018;13.586;2023-03-23T14:13:19;2.50;;;1.30;;
43154;SDS011;34212;51.018;13.586;2023-03-23T14:18:40;1.70;;;1.38;;
43154;SDS011;34212;51.018;13.586;2023-03-23T14:23:47;2.42;;;1.40;;
43154;SDS011;34212;51.018;13.586;2023-03-23T14:28:51;1.75;;;1.35;;
43154;SDS011;34212;51.018;13.586;2023-03-23T14:33:54;6.93;;;1.83;;
43154;SDS011;34212;51.018;13.586;2023-03-23T14:39:14;2.38;;;1.30;;
43154;SDS011;34212;51.018;13.586;2023-03-23T14:44:22;1.67;;;1.40;;
43154;SDS011;34212;51.018;13.586;2023-03-23T14:49:46;2.55;;;1.40;;
43154;SDS011;34212;51.018;13.586;2023-03-23T14:54:46;2.38;;;1.42;;
43154;SDS011;34212;51.018;13.586;2023-03-23T14:59:47;2.08;;;1.50;;
43154;SDS011;34212;51.018;13.586;2023-03-23T15:04:49;2.28;;;1.58;;
43154;SDS011;34212;51.018;13.586;2023-03-23T15:09:53;5.72;;;1.95;;
43154;SDS011;34212;51.018;13.586;2023-03-23T15:14:55;1.90;;;1.52;;
43154;SDS011;34212;51.018;13.586;2023-03-23T15:20:17;1.75;;;1.40;;
43154;SDS011;34212;51.018;13.586;2023-03-23T15:25:24;2.25;;;1.40;;
43154;SDS011;34212;51.018;13.586;2023-03-23T15:30:32;2.20;;;1.23;;
43154;SDS011;34212;51.018;13.586;2023-03-23T15:35:36;1.70;;;1.40;;
43154;SDS011;34212;51.018;13.586;2023-03-23T15:40:38;2.08;;;1.42;;
43154;SDS011;34212;51.018;13.586;2023-03-23T15:45:50;2.17;;;1.35;;
43154;SDS011;34212;51.018;13.586;2023-03-23T15:51:03;2.25;;;1.30;;
43154;SDS011;34212;51.018;13.586;2023-03-23T15:56:04;1.17;;;1.08;;
43154;SDS011;34212;51.018;13.586;2023-03-23T16:01:10;1.10;;;1.00;;
43154;SDS011;34212;51.018;13.586;2023-03-23T16:06:14;1.45;;;1.00;;
43154;SDS011;34212;51.018;13.586;2023-03-23T16:11:26;1.08;;;0.98;;
43154;SDS011;34212;51.018;13.586;2023-03-23T16:16:41;1.15;;;0.88;;
43154;SDS011;34212;51.018;13.586;2023-03-23T16:21:48;2.25;;;1.25;;
43154;SDS011;34212;51.018;13.586;2023-03-23T16:26:49;1.17;;;1.05;;
43154;SDS011;34212;51.018;13.586;2023-03-23T16:31:51;2.72;;;1.10;;
43154;SDS011;34212;51.018;13.586;2023-03-23T16:36:52;1.20;;;1.00;;
43154;SDS011;34212;51.018;13.586;2023-03-23T16:41:54;2.42;;;1.10;;
43154;SDS011;34212;51.018;13.586;2023-03-23T16:46:55;1.40;;;1.10;;
43154;SDS011;34212;51.018;13.586;2023-03-23T16:51:57;1.35;;;1.10;;
43154;SDS011;34212;51.018;13.586;2023-03-23T16:56:58;1.93;;;1.20;;
43154;SDS011;34212;51.018;13.586;2023-03-23T17:02:00;2.90;;;1.30;;
43154;SDS011;34212;51.018;13.586;2023-03-23T17:07:04;1.77;;;1.08;;
43154;SDS011;34212;51.018;13.586;2023-03-23T17:12:05;1.10;;;1.00;;
43154;SDS011;34212;51.018;13.586;2023-03-23T17:17:07;2.03;;;1.00;;
43154;SDS011;34212;51.018;13.586;2023-03-23T17:22:10;4.53;;;1.20;;
43154;SDS011;34212;51.018;13.586;2023-03-23T17:27:12;1.50;;;1.20;;
43154;SDS011;34212;51.018;13.586;2023-03-23T17:32:15;1.55;;;1.30;;
43154;SDS011;34212;51.018;13.586;2023-03-23T17:37:18;2.20;;;1.20;;
43154;SDS011;34212;51.018;13.586;2023-03-23T17:42:20;1.30;;;1.20;;
43154;SDS011;34212;51.018;13.586;2023-03-23T17:47:22;1.48;;;1.30;;
43154;SDS011;34212;51.018;13.586;2023-03-23T17:52:24;3.07;;;1.40;;
43154;SDS011;34212;51.018;13.586;2023-03-23T17:57:26;1.95;;;1.30;;
43154;SDS011;34212;51.018;13.586;2023-03-23T18:02:28;1.70;;;1.20;;
43154;SDS011;34212;51.018;13.586;2023-03-23T18:07:29;1.43;;;1.20;;
43154;SDS011;34212;51.018;13.586;2023-03-23T18:12:31;1.80;;;1.23;;
43154;SDS011;34212;51.018;13.586;2023-03-23T18:17:33;2.78;;;1.45;;
43154;SDS011;34212;51.018;13.586;2023-03-23T18:22:35;1.50;;;1.30;;
43154;SDS011;34212;51.018;13.586;2023-03-23T18:27:36;3.30;;;1.47;;
43154;SDS011;34212;51.018;13.586;2023-03-23T18:32:38;2.72;;;1.52;;
43154;SDS011;34212;51.018;13.586;2023-03-23T18:37:40;2.78;;;1.55;;
43154;SDS011;34212;51.018;13.586;2023-03-23T18:42:43;2.17;;;1.58;;
43154;SDS011;34212;51.018;13.586;2023-03-23T18:47:46;2.55;;;1.80;;
43154;SDS011;34212;51.018;13.586;2023-03-23T18:52:54;2.05;;;1.73;;
43154;SDS011;34212;51.018;13.586;2023-03-23T18:57:56;2.03;;;1.52;;
43154;SDS011;34212;51.018;13.586;2023-03-23T19:03:00;2.72;;;1.90;;
43154;SDS011;34212;51.018;13.586;2023-03-23T19:08:02;2.60;;;2.00;;
43154;SDS011;34212;51.018;13.586;2023-03-23T19:13:03;4.23;;;1.90;;
43154;SDS011;34212;51.018;13.586;2023-03-23T19:18:05;4.90;;;1.90;;
43154;SDS011;34212;51.018;13.586;2023-03-23T19:23:08;3.50;;;1.80;;
43154;SDS011;34212;51.018;13.586;2023-03-23T19:28:09;3.28;;;1.83;;
43154;SDS011;34212;51.018;13.586;2023-03-23T19:33:31;6.25;;;1.80;;
43154;SDS011;34212;51.018;13.586;2023-03-23T19:38:32;2.70;;;2.22;;
43154;SDS011;34212;51.018;13.586;2023-03-23T19:43:34;3.90;;;1.90;;
43154;SDS011;34212;51.018;13.586;2023-03-23T19:48:37;2.50;;;1.92;;
43154;SDS011;34212;51.018;13.586;2023-03-23T19:53:40;4.10;;;2.67;;
43154;SDS011;34212;51.018;13.586;2023-03-23T19:58:42;3.10;;;1.93;;
43154;SDS011;34212;51.018;13.586;2023-03-23T20:03:44;3.10;;;1.80;;
43154;SDS011;34212;51.018;13.586;2023-03-23T20:08:47;3.20;;;2.00;;
43154;SDS011;34212;51.018;13.586;2023-03-23T20:13:49;2.00;;;1.70;;
43154;SDS011;34212;51.018;13.586;2023-03-23T20:18:50;5.45;;;2.88;;
43154;SDS011;34212;51.018;13.586;2023-03-23T20:23:55;3.20;;;2.17;;
43154;SDS011;34212;51.018;13.586;2023-03-23T20:28:58;4.05;;;1.70;;
43154;SDS011;34212;51.018;13.586;2023-03-23T20:34:02;2.45;;;1.95;;
43154;SDS011;34212;51.018;13.586;2023-03-23T20:39:07;2.35;;;1.80;;
43154;SDS011;34212;51.018;13.586;2023-03-23T20:44:11;4.32;;;1.63;;
43154;SDS011;34212;51.018;13.586;2023-03-23T20:49:14;1.98;;;1.23;;
43154;SDS011;34212;51.018;13.586;2023-03-23T20:59:19;1.65;;;1.10;;
43154;SDS011;34212;51.018;13.586;2023-03-23T21:04:21;1.92;;;1.83;;
43154;SDS011;34212;51.018;13.586;2023-03-23T21:09:27;2.05;;;1.25;;
43154;SDS011;34212;51.018;13.586;2023-03-23T21:14:29;1.70;;;1.40;;
43154;SDS011;34212;51.018;13.586;2023-03-23T21:19:30;1.85;;;1.25;;
43154;SDS011;34212;51.018;13.586;2023-03-23T21:24:32;1.15;;;1.05;;
43154;SDS011;34212;51.018;13.586;2023-03-23T21:29:37;1.17;;;1.00;;
43154;SDS011;34212;51.018;13.586;2023-03-23T21:34:39;2.20;;;1.70;;
43154;SDS011;34212;51.018;13.586;2023-03-23T21:39:41;4.07;;;1.10;;
43154;SDS011;34212;51.018;13.586;2023-03-23T21:44:42;2.40;;;1.30;;
43154;SDS011;34212;51.018;13.586;2023-03-23T21:49:44;1.88;;;1.10;;
43154;SDS011;34212;51.018;13.586;2023-03-23T21:54:46;1.20;;;1.10;;
43154;SDS011;34212;51.018;13.586;2023-03-23T22:04:50;1.70;;;1.20;;
43154;SDS011;34212;51.018;13.586;2023-03-23T22:09:55;2.15;;;1.60;;
43154;SDS011;34212;51.018;13.586;2023-03-23T22:14:57;2.20;;;1.60;;
43154;SDS011;34212;51.018;13.586;2023-03-23T22:19:58;3.20;;;1.55;;
43154;SDS011;34212;51.018;13.586;2023-03-23T22:24:59;3.35;;;2.03;;
43154;SDS011;34212;51.018;13.586;2023-03-23T22:30:01;2.58;;;1.67;;
43154;SDS011;34212;51.018;13.586;2023-03-23T22:35:03;2.85;;;1.80;;
43154;SDS011;34212;51.018;13.586;2023-03-23T22:40:07;2.58;;;1.63;;
43154;SDS011;34212;51.018;13.586;2023-03-23T22:45:10;2.70;;;1.98;;
43154;SDS011;34212;51.018;13.586;2023-03-23T22:50:11;3.30;;;1.90;;
43154;SDS011;34212;51.018;13.586;2023-03-23T22:55:13;3.38;;;1.65;;
43154;SDS011;34212;51.018;13.586;2023-03-23T23:00:15;2.47;;;2.00;;
43154;SDS011;34212;51.018;13.586;2023-03-23T23:05:18;2.05;;;1.70;;
43154;SDS011;34212;51.018;13.586;2023-03-23T23:10:20;4.35;;;1.90;;
43154;SDS011;34212;51.018;13.586;2023-03-23T23:15:21;2.55;;;1.98;;
43154;SDS011;34212;51.018;13.586;2023-03-23T23:20:23;2.58;;;1.75;;
43154;SDS011;34212;51.018;13.586;2023-03-23T23:25:25;3.00;;;1.83;;
43154;SDS011;34212;51.018;13.586;2023-03-23T23:30:28;2.17;;;1.60;;
43154;SDS011;34212;51.018;13.586;2023-03-23T23:35:31;3.85;;;2.08;;
43154;SDS011;34212;51.018;13.586;2023-03-23T23:40:34;2.72;;;1.90;;
43154;SDS011;34212;51.018;13.586;2023-03-23T23:45:36;2.97;;;1.70;;
43154;SDS011;34212;51.018;13.586;2023-03-23T23:50:38;2.60;;;2.00;;
43154;SDS011;34212;51.018;13.586;2023-03-23T23:55:40;3.65;;;2.03;;
